createdAt,value
2018-10-16T00:01:15.764Z,101450.13
2018-10-16T00:03:45.927Z,101444.04
2018-10-16T00:06:15.979Z,101438.72
2018-10-16T00:08:46.052Z,101438.72
2018-10-16T00:11:16.113Z,101455.57
2018-10-16T00:13:46.178Z,101456.08
2018-10-16T00:16:16.249Z,101457.19
2018-10-16T00:18:46.200Z,101454.91
2018-10-16T00:21:16.198Z,101454.91
2018-10-16T00:23:46.319Z,101457.43
2018-10-16T00:26:16.414Z,101464.57
2018-10-16T00:28:46.548Z,101468.31
2018-10-16T00:31:16.554Z,101473.77
2018-10-16T00:33:46.668Z,101467.59
2018-10-16T00:36:16.703Z,101466.59
2018-10-16T00:38:46.694Z,101470.11
2018-10-16T00:41:16.774Z,101468.95
2018-10-16T00:43:46.923Z,101473.11
2018-10-16T00:46:16.991Z,101467.44
2018-10-16T00:48:47.018Z,101469.19
2018-10-16T00:51:17.038Z,101477.97
2018-10-16T00:53:47.082Z,101473.77
2018-10-16T00:56:17.157Z,101471.02
2018-10-16T00:58:47.223Z,101472.98
2018-10-16T01:01:31.172Z,101476.89
2018-10-16T01:04:05.433Z,101479.59
2018-10-16T01:06:36.244Z,101484.49
2018-10-16T01:09:15.014Z,101475.03
2018-10-16T01:11:44.973Z,101490.74
2018-10-16T01:14:15.004Z,101492.75
2018-10-16T01:16:45.055Z,101493.57
2018-10-16T01:19:15.119Z,101495.56
2018-10-16T01:21:45.234Z,101497.67
2018-10-16T01:24:15.209Z,101496.67
2018-10-16T01:26:45.259Z,101492.81
2018-10-16T01:29:15.364Z,101495.77
2018-10-16T01:31:45.370Z,101501.84
2018-10-16T01:34:15.407Z,101503.38
2018-10-16T01:36:45.455Z,101504.56
2018-10-16T01:39:15.472Z,101510.41
2018-10-16T01:41:45.482Z,101506.52
2018-10-16T01:44:15.418Z,101506.38
2018-10-16T01:46:45.428Z,101499.48
2018-10-16T01:49:18.118Z,101502.77
2018-10-16T01:51:48.108Z,101502.31
2018-10-16T01:54:18.087Z,101502.31
2018-10-16T01:56:48.093Z,101503.56
2018-10-16T01:59:18.074Z,101502.05
2018-10-16T02:01:48.288Z,101512.30
2018-10-16T02:04:18.242Z,101513.45
2018-10-16T02:06:48.317Z,101509.17
2018-10-16T02:09:18.378Z,101506.34
2018-10-16T02:11:48.411Z,101511.65
2018-10-16T02:14:18.479Z,101507.78
2018-10-16T02:16:48.587Z,101513.50
2018-10-16T02:19:18.571Z,101512.89
2018-10-16T02:21:48.594Z,101515.23
2018-10-16T02:24:18.668Z,101518.82
2018-10-16T02:26:48.601Z,101521.28
2018-10-16T02:29:18.668Z,101521.96
2018-10-16T02:31:48.827Z,101518.36
2018-10-16T02:34:18.907Z,101519.36
2018-10-16T02:36:48.905Z,101521.16
2018-10-16T02:39:18.926Z,101522.28
2018-10-16T02:41:48.966Z,101525.52
2018-10-16T02:44:18.998Z,101524.31
2018-10-16T02:46:49.093Z,101525.51
2018-10-16T02:49:19.223Z,101529.63
2018-10-16T02:51:49.222Z,101525.08
2018-10-16T02:54:19.304Z,101523.57
2018-10-16T02:56:49.328Z,101523.45
2018-10-16T02:59:19.326Z,101522.42
2018-10-16T03:01:49.370Z,101523.45
2018-10-16T03:04:19.351Z,101524.35
2018-10-16T03:06:49.344Z,101535.10
2018-10-16T03:09:19.314Z,101538.75
2018-10-16T03:11:49.299Z,101532.33
2018-10-16T03:14:19.317Z,101534.66
2018-10-16T03:16:49.378Z,101538.50
2018-10-16T03:19:19.552Z,101532.42
2018-10-16T03:21:49.548Z,101540.23
2018-10-16T03:24:19.572Z,101536.41
2018-10-16T03:26:49.574Z,101540.23
2018-10-16T03:29:19.517Z,101537.06
2018-10-16T03:31:49.526Z,101535.51
2018-10-16T03:34:19.499Z,101535.51
2018-10-16T03:36:49.505Z,101534.66
2018-10-16T03:39:19.476Z,101540.84
2018-10-16T03:41:49.455Z,101542.77
2018-10-16T03:44:19.518Z,101540.55
2018-10-16T03:46:49.577Z,101539.88
2018-10-16T03:49:19.767Z,101547.72
2018-10-16T03:51:49.826Z,101547.66
2018-10-16T03:54:19.866Z,101543.20
2018-10-16T03:56:49.985Z,101547.31
2018-10-16T03:59:20.076Z,101554.73
2018-10-16T04:01:50.087Z,101556.34
2018-10-16T04:04:20.307Z,101553.38
2018-10-16T04:06:50.447Z,101557.82
2018-10-16T04:09:20.384Z,101560.23
2018-10-16T04:11:50.420Z,101563.08
2018-10-16T04:14:20.503Z,101557.89
2018-10-16T04:16:50.649Z,101562.91
2018-10-16T04:19:20.686Z,101564.27
2018-10-16T04:21:50.623Z,101569.36
2018-10-16T04:24:20.677Z,101570.09
2018-10-16T04:26:50.606Z,101571.20
2018-10-16T04:29:20.679Z,101576.05
2018-10-16T04:31:50.676Z,101573.62
2018-10-16T04:34:20.666Z,101583.64
2018-10-16T04:36:50.681Z,101588.05
2018-10-16T04:39:20.806Z,101580.86
2018-10-16T04:41:50.832Z,101578.02
2018-10-16T04:44:20.834Z,101575.02
2018-10-16T04:46:50.897Z,101580.62
2018-10-16T04:49:20.997Z,101582.23
2018-10-16T04:51:51.111Z,101576.49
2018-10-16T04:54:21.262Z,101580.62
2018-10-16T04:56:52.398Z,101582.79
2018-10-16T04:59:22.447Z,101582.27
2018-10-16T05:01:52.512Z,101586.31
2018-10-16T05:04:22.484Z,101589.66
2018-10-16T05:06:52.592Z,101584.31
2018-10-16T05:09:22.735Z,101589.27
2018-10-16T05:11:54.195Z,101591.93
2018-10-16T05:14:24.455Z,101594.84
2018-10-16T05:16:54.514Z,101596.58
2018-10-16T05:19:24.499Z,101600.04
2018-10-16T05:21:54.508Z,101596.96
2018-10-16T05:24:24.496Z,101599.41
2018-10-16T05:26:54.817Z,101598.23
2018-10-16T05:29:24.887Z,101601.82
2018-10-16T05:31:54.873Z,101600.01
2018-10-16T05:34:24.938Z,101606.29
2018-10-16T05:36:54.915Z,101597.31
2018-10-16T05:39:24.911Z,101602.71
2018-10-16T05:41:54.926Z,101606.87
2018-10-16T05:44:24.936Z,101604.28
2018-10-16T05:46:54.977Z,101603.19
2018-10-16T05:49:25.003Z,101613.89
2018-10-16T05:51:55.001Z,101600.20
2018-10-16T05:54:25.149Z,101613.59
2018-10-16T05:56:55.025Z,101617.76
2018-10-16T05:59:25.080Z,101619.03
2018-10-16T06:01:55.062Z,101622.92
2018-10-16T06:04:25.136Z,101630.52
2018-10-16T06:06:55.176Z,101631.08
2018-10-16T06:09:25.270Z,101632.00
2018-10-16T06:11:55.357Z,101625.69
2018-10-16T06:14:25.689Z,101639.00
2018-10-16T06:16:55.733Z,101638.55
2018-10-16T06:19:25.668Z,101643.62
2018-10-16T06:21:55.851Z,101649.55
2018-10-16T06:24:25.862Z,101648.53
2018-10-16T06:26:55.802Z,101648.91
2018-10-16T06:29:25.882Z,101655.88
2018-10-16T06:31:55.836Z,101654.61
2018-10-16T06:34:25.946Z,101655.19
2018-10-16T06:36:55.962Z,101656.33
2018-10-16T06:39:26.085Z,101657.34
2018-10-16T06:41:56.212Z,101652.05
2018-10-16T06:44:26.253Z,101656.79
2018-10-16T06:46:56.457Z,101652.33
2018-10-16T06:49:26.500Z,101653.09
2018-10-16T06:51:56.622Z,101649.75
2018-10-16T06:54:26.779Z,101649.86
2018-10-16T06:56:56.897Z,101653.15
2018-10-16T06:59:27.452Z,101649.94
2018-10-16T07:01:57.638Z,101654.61
2018-10-16T07:04:27.647Z,101658.65
2018-10-16T07:06:57.819Z,101654.33
2018-10-16T07:09:27.744Z,101661.14
2018-10-16T07:11:57.775Z,101657.30
2018-10-16T07:14:27.821Z,101657.30
2018-10-16T07:16:57.862Z,101656.73
2018-10-16T07:19:27.891Z,101661.96
2018-10-16T07:21:57.988Z,101657.56
2018-10-16T07:24:27.998Z,101665.27
2018-10-16T07:26:58.047Z,101662.69
2018-10-16T07:29:28.061Z,101670.40
2018-10-16T07:31:58.066Z,101675.91
2018-10-16T07:34:28.081Z,101676.33
2018-10-16T07:36:58.084Z,101669.74
2018-10-16T07:39:28.170Z,101675.55
2018-10-16T07:41:58.231Z,101669.56
2018-10-16T07:44:28.238Z,101677.13
2018-10-16T07:46:58.358Z,101676.06
2018-10-16T07:49:28.420Z,101667.05
2018-10-16T07:51:58.424Z,101670.00
2018-10-16T07:54:28.490Z,101667.10
2018-10-16T07:56:58.546Z,101670.30
2018-10-16T07:59:29.056Z,101671.06
2018-10-16T08:01:59.105Z,101679.73
2018-10-16T08:04:29.118Z,101684.02
2018-10-16T08:06:59.225Z,101690.52
2018-10-16T08:09:29.293Z,101689.04
2018-10-16T08:11:59.310Z,101683.14
2018-10-16T08:14:29.325Z,101684.16
2018-10-16T08:16:59.537Z,101675.42
2018-10-16T08:19:29.546Z,101673.30
2018-10-16T08:21:59.618Z,101666.64
2018-10-16T08:24:29.588Z,101662.41
2018-10-16T08:26:59.615Z,101669.20
2018-10-16T08:29:29.773Z,101667.41
2018-10-16T08:31:59.746Z,101668.39
2018-10-16T08:34:29.820Z,101672.94
2018-10-16T08:36:59.912Z,101672.30
2018-10-16T08:39:41.455Z,101671.42
2018-10-16T08:42:44.331Z,101666.27
2018-10-16T08:45:50.225Z,101669.53
2018-10-16T08:48:55.800Z,101660.08
2018-10-16T08:51:52.420Z,101660.72
2018-10-16T08:54:22.914Z,101650.17
2018-10-16T08:56:53.007Z,101652.86
2018-10-16T08:59:23.121Z,101656.79
2018-10-16T09:01:53.161Z,101652.39
2018-10-16T09:04:23.195Z,101653.21
2018-10-16T09:06:53.281Z,101655.66
2018-10-16T09:09:23.291Z,101658.36
2018-10-16T09:11:53.294Z,101666.55
2018-10-16T09:14:23.354Z,101663.36
2018-10-16T09:16:53.372Z,101669.45
2018-10-16T09:19:23.411Z,101671.08
2018-10-16T09:21:53.446Z,101669.39
2018-10-16T09:24:23.609Z,101674.42
2018-10-16T09:26:53.701Z,101666.64
2018-10-16T09:29:23.665Z,101661.94
2018-10-16T09:31:53.730Z,101658.89
2018-10-16T09:34:23.705Z,101661.19
2018-10-16T09:36:53.781Z,101662.46
2018-10-16T09:39:23.760Z,101659.73
2018-10-16T09:41:53.770Z,101656.92
2018-10-16T09:44:23.837Z,101665.09
2018-10-16T09:46:53.861Z,101657.13
2018-10-16T09:49:23.916Z,101657.01
2018-10-16T09:51:53.886Z,101661.00
2018-10-16T09:54:23.912Z,101660.63
2018-10-16T09:56:53.905Z,101660.78
2018-10-16T09:59:23.908Z,101662.66
2018-10-16T10:01:57.285Z,101657.36
2018-10-16T10:04:27.396Z,101658.60
2018-10-16T10:06:57.375Z,101662.26
2018-10-16T10:09:27.402Z,101663.77
2018-10-16T10:11:57.386Z,101660.91
2018-10-16T10:14:27.456Z,101656.64
2018-10-16T10:16:57.391Z,101659.88
2018-10-16T10:19:27.425Z,101651.95
2018-10-16T10:21:57.486Z,101652.73
2018-10-16T10:24:27.516Z,101654.11
2018-10-16T10:26:57.525Z,101659.20
2018-10-16T10:29:28.060Z,101655.47
2018-10-16T10:31:58.152Z,101656.83
2018-10-16T10:34:28.122Z,101653.22
2018-10-16T10:36:58.296Z,101655.73
2018-10-16T10:39:28.321Z,101654.34
2018-10-16T10:41:58.322Z,101654.48
2018-10-16T10:44:28.315Z,101651.82
2018-10-16T10:46:58.460Z,101653.82
2018-10-16T10:49:28.670Z,101647.52
2018-10-16T10:51:58.781Z,101650.22
2018-10-16T10:54:28.853Z,101648.28
2018-10-16T10:56:59.082Z,101642.13
2018-10-16T10:59:28.929Z,101640.67
2018-10-16T11:01:59.080Z,101633.84
2018-10-16T11:04:29.142Z,101637.69
2018-10-16T11:06:59.170Z,101631.03
2018-10-16T11:09:29.231Z,101639.20
2018-10-16T11:11:59.741Z,101636.66
2018-10-16T11:14:30.180Z,101630.64
2018-10-16T11:17:00.177Z,101630.64
2018-10-16T11:19:30.308Z,101636.70
2018-10-16T11:22:00.419Z,101643.16
2018-10-16T11:24:30.485Z,101636.70
2018-10-16T11:27:00.587Z,101640.50
2018-10-16T11:29:30.539Z,101641.42
2018-10-16T11:32:00.576Z,101632.81
2018-10-16T11:34:30.517Z,101635.45
2018-10-16T11:37:00.602Z,101633.30
2018-10-16T11:39:30.612Z,101632.09
2018-10-16T11:42:00.826Z,101629.78
2018-10-16T11:44:30.936Z,101627.80
2018-10-16T11:47:00.951Z,101625.66
2018-10-16T11:49:31.131Z,101624.70
2018-10-16T11:52:01.234Z,101627.89
2018-10-16T11:54:31.220Z,101624.35
2018-10-16T11:57:01.248Z,101640.45
2018-10-16T11:59:31.314Z,101632.27
2018-10-16T12:02:01.521Z,101631.28
2018-10-16T12:04:31.606Z,101629.91
2018-10-16T12:07:01.587Z,101632.27
2018-10-16T12:09:31.929Z,101632.69
2018-10-16T12:12:02.101Z,101625.14
2018-10-16T12:14:32.158Z,101631.49
2018-10-16T12:17:20.990Z,101625.73
2018-10-16T12:19:57.617Z,101625.94
2018-10-16T12:22:27.649Z,101626.52
2018-10-16T12:24:57.686Z,101626.17
2018-10-16T12:27:27.658Z,101632.53
2018-10-16T12:29:57.846Z,101628.14
2018-10-16T12:32:27.844Z,101626.97
2018-10-16T12:34:57.875Z,101621.17
2018-10-16T12:37:27.875Z,101627.53
2018-10-16T12:39:57.882Z,101618.18
2018-10-16T12:42:28.035Z,101614.02
2018-10-16T12:44:58.184Z,101609.44
2018-10-16T12:47:28.262Z,101617.19
2018-10-16T12:49:58.394Z,101612.08
2018-10-16T12:52:28.441Z,101610.84
2018-10-16T12:54:58.465Z,101608.66
2018-10-16T12:57:28.699Z,101610.78
2018-10-16T12:59:58.707Z,101609.19
2018-10-16T13:02:28.745Z,101606.06
2018-10-16T13:04:58.861Z,101613.56
2018-10-16T13:07:38.989Z,101605.64
2018-10-16T13:10:14.624Z,101610.45
2018-10-16T13:12:45.607Z,101606.89
2018-10-16T13:15:16.483Z,101612.22
2018-10-16T13:17:46.760Z,101619.56
2018-10-16T13:20:17.163Z,101615.57
2018-10-16T13:22:48.538Z,101619.11
2018-10-16T13:25:18.787Z,101618.71
2018-10-16T13:27:48.823Z,101613.55
2018-10-16T13:30:19.903Z,101611.59
2018-10-16T13:32:50.770Z,101607.44
2018-10-16T13:35:21.671Z,101604.25
2018-10-16T13:37:51.731Z,101606.47
2018-10-16T13:40:21.764Z,101607.67
2018-10-16T13:42:51.784Z,101608.05
2018-10-16T13:45:21.881Z,101605.27
2018-10-16T13:47:51.989Z,101601.29
2018-10-16T13:50:22.060Z,101600.50
2018-10-16T13:52:52.050Z,101598.50
2018-10-16T13:55:22.198Z,101601.44
2018-10-16T13:57:52.218Z,101610.96
2018-10-16T14:00:22.494Z,101609.70
2018-10-16T14:02:54.313Z,101609.47
2018-10-16T14:05:24.300Z,101608.22
2018-10-16T14:07:54.337Z,101606.18
2018-10-16T14:10:24.265Z,101610.47
2018-10-16T14:12:54.286Z,101604.08
2018-10-16T14:15:24.269Z,101604.80
2018-10-16T14:17:54.348Z,101607.05
2018-10-16T14:20:24.354Z,101606.47
2018-10-16T14:22:54.369Z,101615.38
2018-10-16T14:25:24.380Z,101609.13
2018-10-16T14:27:54.457Z,101606.30
2018-10-16T14:30:24.551Z,101601.45
2018-10-16T14:32:54.630Z,101599.42
2018-10-16T14:37:54.688Z,101596.25
2018-10-16T14:40:24.728Z,101598.19
2018-10-16T14:42:54.692Z,101600.21
2018-10-16T14:45:24.715Z,101599.23
2018-10-16T14:47:54.788Z,101599.91
2018-10-16T14:50:24.662Z,101596.05
2018-10-16T14:52:54.631Z,101592.40
2018-10-16T14:55:24.635Z,101597.03
2018-10-16T14:57:54.690Z,101595.11
2018-10-16T15:00:24.640Z,101593.92
2018-10-16T15:02:54.646Z,101595.70
2018-10-16T15:05:24.668Z,101592.14
2018-10-16T15:07:54.736Z,101590.58
2018-10-16T15:10:24.817Z,101588.40
2018-10-16T15:12:54.841Z,101585.20
2018-10-16T15:15:24.809Z,101589.09
2018-10-16T15:17:54.839Z,101592.75
2018-10-16T15:20:24.884Z,101594.97
2018-10-16T15:22:54.849Z,101596.59
2018-10-16T15:25:24.891Z,101598.73
2018-10-16T15:27:54.923Z,101596.28
2018-10-16T15:30:24.969Z,101595.45
2018-10-16T15:32:55.075Z,101593.88
2018-10-16T15:35:25.096Z,101598.53
2018-10-16T15:37:55.350Z,101602.05
2018-10-16T15:40:25.322Z,101602.41
2018-10-16T15:42:55.408Z,101602.83
2018-10-16T15:45:25.431Z,101601.52
2018-10-16T15:50:25.457Z,101602.95
2018-10-16T15:52:55.466Z,101596.92
2018-10-16T15:55:25.585Z,101600.49
2018-10-16T15:57:55.579Z,101601.57
2018-10-16T16:00:25.720Z,101611.52
2018-10-16T16:02:55.768Z,101600.34
2018-10-16T16:05:25.760Z,101607.75
2018-10-16T16:07:55.879Z,101609.08
2018-10-16T16:10:25.960Z,101606.09
2018-10-16T16:12:56.101Z,101605.41
2018-10-16T16:15:26.145Z,101606.81
2018-10-16T16:17:56.188Z,101609.92
2018-10-16T16:20:26.318Z,101603.94
2018-10-16T16:22:56.279Z,101604.94
2018-10-16T16:25:26.251Z,101613.51
2018-10-16T16:27:56.345Z,101611.48
2018-10-16T16:30:26.344Z,101618.59
2018-10-16T16:32:56.341Z,101621.27
2018-10-16T16:35:26.353Z,101623.18
2018-10-16T16:37:56.548Z,101625.91
2018-10-16T16:40:26.499Z,101630.73
2018-10-16T16:42:56.794Z,101634.66
2018-10-16T16:45:26.807Z,101634.38
2018-10-16T16:47:56.804Z,101635.68
2018-10-16T16:50:26.816Z,101634.64
2018-10-16T16:52:56.991Z,101635.36
2018-10-16T16:55:27.039Z,101644.87
2018-10-16T16:57:57.088Z,101648.42
2018-10-16T17:00:27.155Z,101648.42
2018-10-16T17:02:57.173Z,101658.62
2018-10-16T17:05:27.199Z,101653.59
2018-10-16T17:07:57.290Z,101655.33
2018-10-16T17:10:27.370Z,101652.56
2018-10-16T17:12:57.389Z,101652.56
2018-10-16T17:15:27.550Z,101651.19
2018-10-16T17:17:57.678Z,101654.06
2018-10-16T17:20:27.719Z,101657.72
2018-10-16T17:22:57.765Z,101662.16
2018-10-16T17:25:28.009Z,101657.45
2018-10-16T17:27:57.905Z,101659.39
2018-10-16T17:30:27.840Z,101655.72
2018-10-16T17:32:57.894Z,101660.31
2018-10-16T17:35:27.955Z,101663.11
2018-10-16T17:37:57.981Z,101667.69
2018-10-16T17:40:28.063Z,101665.27
2018-10-16T17:42:58.159Z,101666.63
2018-10-16T17:45:28.303Z,101668.42
2018-10-16T17:47:58.545Z,101668.52
2018-10-16T17:50:28.654Z,101670.58
2018-10-16T17:52:58.750Z,101670.20
2018-10-16T17:55:28.869Z,101671.70
2018-10-16T17:57:58.913Z,101674.30
2018-10-16T18:00:28.875Z,101681.03
2018-10-16T18:02:58.980Z,101677.69
2018-10-16T18:05:29.013Z,101686.70
2018-10-16T18:07:59.034Z,101680.44
2018-10-16T18:10:29.091Z,101686.61
2018-10-16T18:12:59.225Z,101685.54
2018-10-16T18:15:29.202Z,101689.77
2018-10-16T18:17:59.220Z,101688.01
2018-10-16T18:20:29.252Z,101687.16
2018-10-16T18:22:59.219Z,101687.84
2018-10-16T18:25:29.192Z,101691.72
2018-10-16T18:27:59.220Z,101690.61
2018-10-16T18:30:29.329Z,101687.44
2018-10-16T18:32:59.341Z,101684.23
2018-10-16T18:35:37.834Z,101685.61
2018-10-16T18:38:07.903Z,101689.72
2018-10-16T18:40:38.050Z,101678.42
2018-10-16T18:43:08.230Z,101678.42
2018-10-16T18:45:38.290Z,101682.14
2018-10-16T18:48:08.414Z,101679.33
2018-10-16T18:50:38.559Z,101679.39
2018-10-16T18:53:08.802Z,101682.58
2018-10-16T18:55:38.920Z,101681.37
2018-10-16T18:58:08.999Z,101684.72
2018-10-16T19:00:39.129Z,101686.49
2018-10-16T19:03:09.272Z,101681.45
2018-10-16T19:05:39.280Z,101687.66
2018-10-16T19:08:09.394Z,101685.89
2018-10-16T19:10:39.469Z,101689.93
2018-10-16T19:13:09.635Z,101692.53
2018-10-16T19:15:39.678Z,101697.53
2018-10-16T19:18:09.684Z,101698.03
2018-10-16T19:20:39.685Z,101700.02
2018-10-16T19:23:09.674Z,101703.07
2018-10-16T19:25:39.675Z,101699.16
2018-10-16T19:28:09.933Z,101702.75
2018-10-16T19:30:39.982Z,101696.88
2018-10-16T19:33:10.150Z,101701.89
2018-10-16T19:35:40.128Z,101700.77
2018-10-16T19:38:10.200Z,101701.89
2018-10-16T19:40:40.270Z,101698.66
2018-10-16T19:43:10.288Z,101701.70
2018-10-16T19:45:40.477Z,101703.16
2018-10-16T19:48:10.549Z,101699.52
2018-10-16T19:50:40.575Z,101711.13
2018-10-16T19:53:10.678Z,101711.52
2018-10-16T19:55:40.688Z,101709.60
2018-10-16T19:58:10.745Z,101703.63
2018-10-16T20:00:40.733Z,101717.97
2018-10-16T20:03:10.870Z,101713.86
2018-10-16T20:05:40.840Z,101715.78
2018-10-16T20:08:10.917Z,101720.38
2018-10-16T20:10:41.071Z,101719.74
2018-10-16T20:13:11.219Z,101717.66
2018-10-16T20:15:41.335Z,101727.38
2018-10-16T20:18:11.387Z,101721.48
2018-10-16T20:20:41.389Z,101716.99
2018-10-16T20:23:11.400Z,101718.75
2018-10-16T20:25:41.475Z,101719.33
2018-10-16T20:28:11.538Z,101717.73
2018-10-16T20:30:41.596Z,101719.02
2018-10-16T20:33:11.530Z,101720.38
2018-10-16T20:35:41.544Z,101716.20
2018-10-16T20:38:11.659Z,101713.88
2018-10-16T20:40:41.759Z,101722.95
2018-10-16T20:43:11.830Z,101720.54
2018-10-16T20:45:41.856Z,101719.27
2018-10-16T20:48:11.911Z,101720.78
2018-10-16T20:50:42.112Z,101727.84
2018-10-16T20:53:12.129Z,101722.30
2018-10-16T20:55:42.312Z,101716.67
2018-10-16T20:58:12.320Z,101721.81
2018-10-16T21:00:42.482Z,101719.79
2018-10-16T21:03:12.483Z,101717.95
2018-10-16T21:05:42.540Z,101718.33
2018-10-16T21:08:12.618Z,101723.79
2018-10-16T21:10:42.675Z,101721.81
2018-10-16T21:13:12.901Z,101716.34
2018-10-16T21:15:43.036Z,101720.02
2018-10-16T21:18:13.102Z,101729.16
2018-10-16T21:20:43.159Z,101725.57
2018-10-16T21:23:13.329Z,101719.78
2018-10-16T21:25:43.314Z,101726.94
2018-10-16T21:28:13.288Z,101726.14
2018-10-16T21:30:43.309Z,101718.42
2018-10-16T21:33:13.417Z,101718.56
2018-10-16T21:35:43.562Z,101717.61
2018-10-16T21:38:13.574Z,101715.12
2018-10-16T21:40:43.535Z,101716.15
2018-10-16T21:43:13.870Z,101709.64
2018-10-16T21:45:44.300Z,101709.88
2018-10-16T21:48:14.577Z,101708.88
2018-10-16T21:50:44.785Z,101702.46
2018-10-16T21:55:45.952Z,101694.30
2018-10-16T21:58:15.977Z,101693.55
2018-10-16T22:01:03.357Z,101694.17
2018-10-16T22:03:33.448Z,101692.80
2018-10-16T22:06:03.549Z,101690.48
2018-10-16T22:08:33.597Z,101691.23
2018-10-16T22:11:03.822Z,101696.85
2018-10-16T22:13:33.741Z,101685.77
2018-10-16T22:16:03.809Z,101685.85
2018-10-16T22:18:33.804Z,101690.27
2018-10-16T22:21:03.849Z,101691.31
2018-10-16T22:23:33.992Z,101689.49
2018-10-16T22:26:03.998Z,101692.38
2018-10-16T22:28:34.107Z,101685.39
2018-10-16T22:31:04.269Z,101686.04
2018-10-16T22:33:34.274Z,101684.41
2018-10-16T22:36:04.296Z,101682.75
2018-10-16T22:38:34.303Z,101682.10
2018-10-16T22:41:04.411Z,101682.10
2018-10-16T22:43:34.342Z,101681.78
2018-10-16T22:46:04.483Z,101682.91
2018-10-16T22:48:34.464Z,101682.19
2018-10-16T22:51:04.702Z,101676.41
2018-10-16T22:53:34.909Z,101681.44
2018-10-16T22:56:04.913Z,101682.66
2018-10-16T22:58:34.894Z,101676.08
2018-10-16T23:01:04.982Z,101679.11
2018-10-16T23:03:34.973Z,101683.34
2018-10-16T23:06:04.927Z,101682.91
2018-10-16T23:08:34.953Z,101674.69
2018-10-16T23:11:04.920Z,101676.18
2018-10-16T23:13:34.862Z,101678.62
2018-10-16T23:16:04.946Z,101679.02
2018-10-16T23:18:35.047Z,101683.87
2018-10-16T23:21:05.238Z,101679.80
2018-10-16T23:23:35.188Z,101677.87
2018-10-16T23:26:05.227Z,101674.42
2018-10-16T23:28:35.252Z,101675.92
2018-10-16T23:31:05.293Z,101672.44
2018-10-16T23:33:35.323Z,101669.62
2018-10-16T23:36:05.330Z,101664.66
2018-10-16T23:38:35.544Z,101673.08
2018-10-16T23:41:05.728Z,101670.67
2018-10-16T23:43:35.876Z,101674.09
2018-10-16T23:46:06.068Z,101672.61
2018-10-16T23:48:36.207Z,101669.05
2018-10-16T23:51:06.433Z,101670.77
2018-10-16T23:53:36.482Z,101662.11
2018-10-16T23:56:06.440Z,101658.18
2018-10-16T23:58:36.634Z,101656.58
